createdAt,value
2022-11-03T00:01:37.448Z,76795.94
2022-11-03T00:04:05.946Z,76793.91
2022-11-03T00:06:33.851Z,76795.94
2022-11-03T00:09:04.491Z,76810.22
2022-11-03T00:11:35.465Z,76820.41
2022-11-03T00:14:03.843Z,76826.53
2022-11-03T00:16:32.009Z,76818.38
2022-11-03T00:19:00.013Z,76816.34
2022-11-03T00:21:28.061Z,76812.25
2022-11-03T00:23:55.914Z,76808.19
2022-11-03T00:26:25.690Z,76806.13
2022-11-03T00:28:57.074Z,76795.94
2022-11-03T00:31:26.746Z,76804.09
2022-11-03T00:33:55.660Z,76804.09
2022-11-03T00:36:25.514Z,76800.03
2022-11-03T00:38:53.745Z,76802.06
2022-11-03T00:41:22.891Z,76797.97
2022-11-03T00:43:51.888Z,76793.91
2022-11-03T00:46:22.550Z,76783.72
2022-11-03T00:48:51.231Z,76785.75
2022-11-03T00:51:20.894Z,76787.78
2022-11-03T00:53:51.327Z,76791.88
2022-11-03T00:56:20.722Z,76808.19
2022-11-03T00:58:48.483Z,76812.25
2022-11-03T01:01:18.132Z,76812.25
2022-11-03T01:04:02.833Z,76812.25
2022-11-03T01:06:49.572Z,76812.25
2022-11-03T01:09:17.608Z,76812.25
2022-11-03T01:11:54.252Z,76800.03
2022-11-03T01:14:22.024Z,76806.13
2022-11-03T01:16:49.986Z,76812.25
2022-11-03T01:19:19.142Z,76810.22
2022-11-03T01:21:47.308Z,76820.41
2022-11-03T01:24:15.097Z,76820.41
2022-11-03T01:26:42.941Z,76812.25
2022-11-03T01:29:10.788Z,76816.34
2022-11-03T01:31:38.660Z,76808.19
2022-11-03T01:34:06.598Z,76802.06
2022-11-03T01:36:35.731Z,76789.81
2022-11-03T01:39:03.546Z,76791.88
2022-11-03T01:41:31.339Z,76783.72
2022-11-03T01:44:28.871Z,76787.78
2022-11-03T01:47:02.806Z,76787.78
2022-11-03T01:49:37.070Z,76781.66
2022-11-03T01:52:10.740Z,76779.63
2022-11-03T01:54:40.244Z,76775.56
2022-11-03T01:57:14.674Z,76775.56
2022-11-03T01:59:43.753Z,76767.41
2022-11-03T02:02:12.689Z,76759.25
2022-11-03T02:04:40.975Z,76767.41
2022-11-03T02:07:18.851Z,76767.41
2022-11-03T02:09:46.703Z,76763.31
2022-11-03T02:12:16.346Z,76759.25
2022-11-03T02:14:46.861Z,76759.25
2022-11-03T02:17:15.895Z,76759.25
2022-11-03T02:19:47.680Z,76747.00
2022-11-03T02:22:48.198Z,76736.81
2022-11-03T02:25:20.483Z,76730.69
2022-11-03T02:27:50.064Z,76722.53
2022-11-03T02:30:17.890Z,76724.56
2022-11-03T02:32:57.117Z,76724.56
2022-11-03T02:35:32.301Z,76726.63
2022-11-03T02:38:04.130Z,76722.53
2022-11-03T02:40:35.712Z,76714.38
2022-11-03T02:43:07.242Z,76722.53
2022-11-03T02:45:35.985Z,76689.91
2022-11-03T02:48:06.094Z,76669.53
2022-11-03T02:50:35.669Z,76632.81
2022-11-03T02:53:03.797Z,76612.41
2022-11-03T02:55:38.185Z,76594.06
2022-11-03T02:58:16.129Z,76579.78
2022-11-03T03:00:50.077Z,76573.69
2022-11-03T03:03:23.395Z,76575.72
2022-11-03T03:05:57.012Z,76573.69
2022-11-03T03:08:27.033Z,76563.47
2022-11-03T03:10:56.005Z,76567.56
2022-11-03T03:13:25.817Z,76565.53
2022-11-03T03:16:06.945Z,76563.47
2022-11-03T03:18:48.925Z,76571.63
2022-11-03T03:21:22.128Z,76579.78
2022-11-03T03:23:54.942Z,76594.06
2022-11-03T03:26:29.313Z,76600.19
2022-11-03T03:29:02.903Z,76608.34
2022-11-03T03:31:35.800Z,76606.31
2022-11-03T03:34:23.534Z,76600.19
2022-11-03T03:36:56.886Z,76604.28
2022-11-03T03:39:28.472Z,76596.09
2022-11-03T03:41:58.721Z,76592.03
2022-11-03T03:44:28.860Z,76587.94
2022-11-03T03:47:01.537Z,76559.41
2022-11-03T03:49:29.846Z,76543.09
2022-11-03T03:51:57.673Z,76526.78
2022-11-03T03:54:25.525Z,76506.38
2022-11-03T03:56:57.974Z,76486.00
2022-11-03T03:59:27.138Z,76461.53
2022-11-03T04:01:55.067Z,76469.69
2022-11-03T04:04:23.128Z,76461.53
2022-11-03T04:07:11.102Z,76457.44
2022-11-03T04:09:38.853Z,76463.56
2022-11-03T04:12:25.030Z,76453.38
2022-11-03T04:15:11.445Z,76451.34
2022-11-03T04:18:00.284Z,76453.38
2022-11-03T04:20:45.880Z,76445.22
2022-11-03T04:23:13.709Z,76441.16
2022-11-03T04:25:41.986Z,76432.97
2022-11-03T04:28:13.612Z,76441.16
2022-11-03T04:30:43.359Z,76430.94
2022-11-03T04:33:15.185Z,76416.69
2022-11-03T04:35:44.328Z,76400.38
2022-11-03T04:38:23.258Z,76390.16
2022-11-03T04:40:57.990Z,76394.25
2022-11-03T04:43:32.553Z,76396.28
2022-11-03T04:46:01.940Z,76404.44
2022-11-03T04:48:30.918Z,76394.25
2022-11-03T04:51:01.285Z,76400.38
2022-11-03T04:53:31.775Z,76392.22
2022-11-03T04:56:07.023Z,76392.22
2022-11-03T04:58:36.942Z,76386.09
2022-11-03T05:01:11.713Z,76367.75
2022-11-03T05:03:41.862Z,76363.66
2022-11-03T05:06:13.810Z,76353.47
2022-11-03T05:08:42.701Z,76349.38
2022-11-03T05:11:18.220Z,76355.50
2022-11-03T05:13:46.081Z,76353.47
2022-11-03T05:16:15.278Z,76357.53
2022-11-03T05:18:45.348Z,76353.47
2022-11-03T05:21:15.828Z,76359.59
2022-11-03T05:23:47.980Z,76357.53
2022-11-03T05:26:19.271Z,76357.53
2022-11-03T05:28:49.807Z,76359.59
2022-11-03T05:31:27.436Z,76363.66
2022-11-03T05:33:58.565Z,76371.81
2022-11-03T05:36:29.179Z,76355.50
2022-11-03T05:39:00.174Z,76371.81
2022-11-03T05:41:30.147Z,76367.75
2022-11-03T05:44:00.717Z,76355.50
2022-11-03T05:46:32.614Z,76347.34
2022-11-03T05:49:03.546Z,76341.22
2022-11-03T05:51:35.683Z,76347.34
2022-11-03T05:54:07.987Z,76359.59
2022-11-03T05:56:36.158Z,76359.59
2022-11-03T05:59:05.989Z,76369.78
2022-11-03T06:01:38.222Z,76373.84
2022-11-03T06:04:18.228Z,76375.91
2022-11-03T06:06:51.854Z,76377.94
2022-11-03T06:09:23.638Z,76384.06
2022-11-03T06:11:54.234Z,76379.97
2022-11-03T06:14:24.725Z,76388.13
2022-11-03T06:16:57.737Z,76384.06
2022-11-03T06:19:29.825Z,76402.41
2022-11-03T06:22:00.309Z,76392.22
2022-11-03T06:24:31.777Z,76392.22
2022-11-03T06:26:59.789Z,76379.97
2022-11-03T06:29:27.634Z,76355.50
2022-11-03T06:31:58.272Z,76345.31
2022-11-03T06:34:36.039Z,76343.28
2022-11-03T06:37:16.852Z,76326.97
2022-11-03T06:39:44.641Z,76322.88
2022-11-03T06:42:14.233Z,76298.41
2022-11-03T06:44:43.794Z,76294.34
2022-11-03T06:47:24.147Z,76292.28
2022-11-03T06:49:53.944Z,76286.19
2022-11-03T06:52:31.313Z,76286.19
2022-11-03T06:55:20.076Z,76271.91
2022-11-03T06:57:52.680Z,76251.53
2022-11-03T07:00:40.398Z,76247.44
2022-11-03T07:03:19.127Z,76222.97
2022-11-03T07:05:46.945Z,76214.81
2022-11-03T07:08:23.368Z,76204.63
2022-11-03T07:10:52.120Z,76194.44
2022-11-03T07:13:23.185Z,76192.41
2022-11-03T07:15:51.441Z,76180.16
2022-11-03T07:18:24.922Z,76174.03
2022-11-03T07:20:53.409Z,76155.69
2022-11-03T07:23:25.595Z,76151.63
2022-11-03T07:25:55.002Z,76143.47
2022-11-03T07:28:25.564Z,76139.38
2022-11-03T07:30:53.826Z,76131.22
2022-11-03T07:33:27.467Z,76127.16
2022-11-03T07:38:49.003Z,76112.88
2022-11-03T07:41:21.178Z,76102.69
2022-11-03T07:43:55.949Z,76094.53
2022-11-03T07:46:25.416Z,76088.41
2022-11-03T07:48:56.703Z,76082.28
2022-11-03T07:51:27.211Z,76061.91
2022-11-03T07:53:57.922Z,76047.63
2022-11-03T07:56:27.377Z,76043.56
2022-11-03T07:58:59.912Z,76035.41
2022-11-03T08:01:30.727Z,76025.22
2022-11-03T08:04:04.126Z,76008.91
2022-11-03T08:06:32.295Z,76000.75
2022-11-03T08:09:00.356Z,75998.72
2022-11-03T08:11:29.679Z,75980.34
2022-11-03T08:13:58.163Z,75968.13
2022-11-03T08:16:26.200Z,75949.78
2022-11-03T08:18:54.196Z,75951.81
2022-11-03T08:21:23.667Z,75937.53
2022-11-03T08:23:52.027Z,75933.47
2022-11-03T08:26:19.785Z,75927.34
2022-11-03T08:28:47.709Z,75915.13
2022-11-03T08:31:15.667Z,75898.81
2022-11-03T08:33:43.478Z,75894.75
2022-11-03T08:36:11.795Z,75894.75
2022-11-03T08:38:41.006Z,75882.50
2022-11-03T08:41:08.870Z,75878.44
2022-11-03T08:43:36.853Z,75858.03
2022-11-03T08:46:13.889Z,75847.84
2022-11-03T08:48:46.018Z,75841.72
2022-11-03T08:51:14.633Z,75833.56
2022-11-03T08:53:44.512Z,75825.41
2022-11-03T08:56:14.309Z,75811.16
2022-11-03T08:58:44.512Z,75800.97
2022-11-03T09:01:12.619Z,75796.88
2022-11-03T09:03:41.028Z,75782.59
2022-11-03T09:06:09.465Z,75776.50
2022-11-03T09:11:26.777Z,75743.88
2022-11-03T09:13:54.657Z,75739.81
2022-11-03T09:16:22.390Z,75723.50
2022-11-03T09:18:50.259Z,75709.22
2022-11-03T09:21:18.372Z,75707.19
2022-11-03T09:23:46.267Z,75692.91
2022-11-03T09:26:14.048Z,75672.53
2022-11-03T09:28:43.261Z,75660.28
2022-11-03T09:31:11.117Z,75660.28
2022-11-03T09:33:38.927Z,75646.03
2022-11-03T09:36:07.392Z,75644.00
2022-11-03T09:38:35.180Z,75617.50
2022-11-03T09:41:09.748Z,75615.44
2022-11-03T09:43:49.934Z,75597.09
2022-11-03T09:46:19.095Z,75564.47
2022-11-03T09:48:47.326Z,75570.59
2022-11-03T09:51:20.204Z,75574.69
2022-11-03T09:53:48.270Z,75574.69
2022-11-03T09:56:19.127Z,75562.44
2022-11-03T09:58:53.060Z,75548.19
2022-11-03T10:01:22.740Z,75527.78
2022-11-03T10:03:50.920Z,75523.72
2022-11-03T10:06:18.688Z,75505.38
2022-11-03T10:08:48.093Z,75478.88
2022-11-03T10:11:16.145Z,75446.25
2022-11-03T10:13:49.376Z,75452.38
2022-11-03T10:16:19.690Z,75442.19
2022-11-03T10:18:47.967Z,75444.22
2022-11-03T10:21:17.556Z,75450.34
2022-11-03T10:23:45.776Z,75446.25
2022-11-03T10:26:16.477Z,75429.94
2022-11-03T10:28:59.662Z,75411.59
2022-11-03T10:31:34.590Z,75415.69
2022-11-03T10:34:02.563Z,75405.50
2022-11-03T10:36:33.358Z,75376.94
2022-11-03T10:39:21.909Z,75364.72
2022-11-03T10:41:57.944Z,75356.56
2022-11-03T10:44:29.816Z,75344.34
2022-11-03T10:46:59.394Z,75348.41
2022-11-03T10:49:29.465Z,75332.09
2022-11-03T10:52:16.015Z,75303.56
2022-11-03T10:54:44.011Z,75279.09
2022-11-03T10:57:12.042Z,75268.91
2022-11-03T10:59:42.493Z,75268.91
2022-11-03T11:02:18.529Z,75260.75
2022-11-03T11:04:48.193Z,75250.56
2022-11-03T11:07:25.082Z,75226.13
2022-11-03T11:09:56.258Z,75209.81
2022-11-03T11:12:25.289Z,75185.34
2022-11-03T11:14:56.853Z,75175.16
2022-11-03T11:17:42.956Z,75152.75
2022-11-03T11:20:34.311Z,75136.44
2022-11-03T11:23:50.059Z,75130.31
2022-11-03T11:26:34.044Z,75130.31
2022-11-03T11:29:44.893Z,75132.34
2022-11-03T11:32:52.276Z,75111.97
2022-11-03T11:36:05.769Z,75103.81
2022-11-03T11:38:58.501Z,75075.28
2022-11-03T11:42:04.013Z,75054.91
2022-11-03T11:44:57.804Z,75052.88
2022-11-03T11:47:49.051Z,75046.75
2022-11-03T11:50:31.426Z,75022.28
2022-11-03T11:53:14.285Z,75014.13
2022-11-03T11:55:46.654Z,75014.13
2022-11-03T11:58:27.882Z,75001.91
2022-11-03T12:00:58.896Z,74995.81
2022-11-03T12:03:34.141Z,74985.59
2022-11-03T12:06:01.992Z,74971.34
2022-11-03T12:08:32.330Z,74963.19
2022-11-03T12:11:03.469Z,74955.03
2022-11-03T12:13:53.046Z,74948.91
2022-11-03T12:16:32.120Z,74940.78
2022-11-03T12:19:34.576Z,74930.56
2022-11-03T12:22:02.521Z,74920.38
2022-11-03T12:24:38.164Z,74908.16
2022-11-03T12:27:37.214Z,74889.81
2022-11-03T12:30:08.676Z,74887.78
2022-11-03T12:32:36.475Z,74879.63
2022-11-03T12:35:04.583Z,74875.56
2022-11-03T12:37:32.410Z,74857.22
2022-11-03T12:40:00.583Z,74851.09
2022-11-03T12:42:29.767Z,74849.06
2022-11-03T12:44:57.648Z,74838.88
2022-11-03T12:47:25.436Z,74842.94
2022-11-03T12:49:53.516Z,74830.72
2022-11-03T12:52:21.381Z,74814.41
2022-11-03T12:54:49.206Z,74812.38
2022-11-03T12:57:17.572Z,74812.38
2022-11-03T12:59:46.750Z,74808.28
2022-11-03T13:02:14.643Z,74802.19
2022-11-03T13:04:42.597Z,74789.94
2022-11-03T13:07:10.456Z,74779.75
2022-11-03T13:09:38.229Z,74767.53
2022-11-03T13:12:23.977Z,74773.66
2022-11-03T13:14:53.137Z,74763.47
2022-11-03T13:17:20.935Z,74755.31
2022-11-03T13:19:54.282Z,74753.28
2022-11-03T13:22:22.665Z,74751.22
2022-11-03T13:24:50.606Z,74747.16
2022-11-03T13:27:18.385Z,74749.19
2022-11-03T13:29:46.215Z,74745.13
2022-11-03T13:32:15.313Z,74747.16
2022-11-03T13:34:43.096Z,74745.13
2022-11-03T13:37:10.905Z,74745.13
2022-11-03T13:39:38.674Z,74743.06
2022-11-03T13:42:06.605Z,74747.16
2022-11-03T13:44:34.478Z,74749.19
2022-11-03T13:47:02.258Z,74741.03
2022-11-03T13:52:19.472Z,74745.13
2022-11-03T14:00:23.048Z,74757.34
2022-11-03T14:05:40.240Z,74771.59
2022-11-03T14:08:08.303Z,74783.84
2022-11-03T14:10:36.271Z,74777.72
2022-11-03T14:13:03.113Z,74779.75
2022-11-03T14:15:30.981Z,74794.03
2022-11-03T14:17:58.785Z,74789.94
2022-11-03T14:23:02.839Z,74783.84
2022-11-03T14:25:30.685Z,74785.88
2022-11-03T14:27:58.547Z,74785.88
2022-11-03T14:30:26.392Z,74785.88
2022-11-03T14:32:59.221Z,74781.81
2022-11-03T14:35:27.642Z,74775.69
2022-11-03T14:37:55.494Z,74789.94
2022-11-03T14:40:42.130Z,74794.03
2022-11-03T14:43:10.326Z,74798.09
2022-11-03T14:45:41.586Z,74804.22
2022-11-03T14:48:10.674Z,74806.25
2022-11-03T14:50:38.525Z,74810.34
2022-11-03T14:53:06.280Z,74802.19
2022-11-03T14:55:35.476Z,74808.28
2022-11-03T14:58:03.268Z,74810.34
2022-11-03T15:00:31.210Z,74816.44
2022-11-03T15:02:59.079Z,74818.47
2022-11-03T15:05:45.151Z,74830.72
2022-11-03T15:08:13.602Z,74842.94
2022-11-03T15:10:43.326Z,74859.25
2022-11-03T15:13:11.531Z,74875.56
2022-11-03T15:15:41.027Z,74875.56
2022-11-03T15:18:09.151Z,74891.84
2022-11-03T15:20:37.181Z,74895.94
2022-11-03T15:25:55.241Z,74910.19
2022-11-03T15:28:23.319Z,74926.50
2022-11-03T15:30:51.099Z,74942.81
2022-11-03T15:33:18.981Z,74961.16
2022-11-03T15:35:47.048Z,74973.38
2022-11-03T15:38:14.911Z,74977.47
2022-11-03T15:40:42.666Z,74987.66
2022-11-03T15:43:11.922Z,74997.84
2022-11-03T15:45:40.580Z,75003.94
2022-11-03T15:48:08.792Z,75018.22
2022-11-03T15:50:36.974Z,75026.38
2022-11-03T15:53:04.755Z,75030.44
2022-11-03T15:55:32.526Z,75032.47
2022-11-03T15:58:00.371Z,75046.75
2022-11-03T16:00:29.486Z,75040.63
2022-11-03T16:02:57.370Z,75054.91
2022-11-03T16:05:25.530Z,75052.88
2022-11-03T16:07:53.338Z,75063.06
2022-11-03T16:10:21.077Z,75067.13
2022-11-03T16:12:48.921Z,75071.22
2022-11-03T16:15:16.697Z,75073.25
2022-11-03T16:17:45.908Z,75075.28
2022-11-03T16:20:13.790Z,75067.13
2022-11-03T16:22:41.690Z,75067.13
2022-11-03T16:25:13.366Z,75075.28
2022-11-03T16:27:43.511Z,75079.38
2022-11-03T16:30:12.629Z,75093.63
2022-11-03T16:32:40.478Z,75107.91
2022-11-03T16:35:10.560Z,75122.16
2022-11-03T16:37:38.324Z,75122.16
2022-11-03T16:40:07.245Z,75124.19
2022-11-03T16:42:38.434Z,75128.28
2022-11-03T16:45:08.497Z,75138.47
2022-11-03T16:47:36.271Z,75142.53
2022-11-03T16:50:04.164Z,75148.66
2022-11-03T16:52:33.352Z,75156.81
2022-11-03T16:55:01.179Z,75152.75
2022-11-03T16:57:28.959Z,75152.75
2022-11-03T16:59:56.812Z,75140.50
2022-11-03T17:02:24.972Z,75128.28
2022-11-03T17:04:52.813Z,75132.34
2022-11-03T17:07:20.577Z,75128.28
2022-11-03T17:09:50.056Z,75120.13
2022-11-03T17:12:17.822Z,75116.06
2022-11-03T17:14:45.717Z,75122.16
2022-11-03T17:17:13.538Z,75134.41
2022-11-03T17:19:41.332Z,75140.50
2022-11-03T17:22:09.136Z,75144.59
2022-11-03T17:24:36.986Z,75150.69
2022-11-03T17:27:11.685Z,75140.50
2022-11-03T17:29:43.023Z,75140.50
2022-11-03T17:32:14.630Z,75142.53
2022-11-03T17:34:42.856Z,75144.59
2022-11-03T17:37:10.751Z,75142.53
2022-11-03T17:39:41.830Z,75138.47
2022-11-03T17:42:17.815Z,75160.88
2022-11-03T17:44:46.762Z,75156.81
2022-11-03T17:47:15.052Z,75156.81
2022-11-03T17:49:43.149Z,75160.88
2022-11-03T17:52:15.485Z,75160.88
2022-11-03T17:54:43.551Z,75173.13
2022-11-03T17:57:17.136Z,75181.28
2022-11-03T17:59:48.468Z,75179.25
2022-11-03T18:02:18.475Z,75181.28
2022-11-03T18:04:46.919Z,75177.19
2022-11-03T18:07:21.514Z,75185.34
2022-11-03T18:09:49.379Z,75187.38
2022-11-03T18:12:41.577Z,75197.56
2022-11-03T18:15:15.736Z,75197.56
2022-11-03T18:17:47.749Z,75209.81
2022-11-03T18:20:18.623Z,75209.81
2022-11-03T18:22:46.556Z,75203.69
2022-11-03T18:25:15.360Z,75205.72
2022-11-03T18:27:44.922Z,75201.66
2022-11-03T18:30:16.763Z,75205.72
2022-11-03T18:32:46.584Z,75201.66
2022-11-03T18:35:18.609Z,75185.34
2022-11-03T18:37:46.460Z,75189.44
2022-11-03T18:40:15.737Z,75175.16
2022-11-03T18:42:44.894Z,75152.75
2022-11-03T18:45:14.388Z,75148.66
2022-11-03T18:47:42.501Z,75160.88
2022-11-03T18:50:15.575Z,75164.97
2022-11-03T18:52:45.388Z,75164.97
2022-11-03T18:55:14.495Z,75175.16
2022-11-03T18:57:42.308Z,75183.31
2022-11-03T19:00:18.949Z,75185.34
2022-11-03T19:02:47.414Z,75171.09
2022-11-03T19:05:18.868Z,75164.97
2022-11-03T19:07:49.011Z,75154.78
2022-11-03T19:10:21.209Z,75169.03
2022-11-03T19:12:49.486Z,75181.28
2022-11-03T19:15:21.250Z,75179.25
2022-11-03T19:17:51.907Z,75185.34
2022-11-03T19:20:19.971Z,75185.34
2022-11-03T19:22:47.913Z,75183.31
2022-11-03T19:25:16.206Z,75171.09
2022-11-03T19:27:46.919Z,75164.97
2022-11-03T19:30:18.094Z,75164.97
2022-11-03T19:32:49.760Z,75160.88
2022-11-03T19:35:21.357Z,75152.75
2022-11-03T19:37:51.980Z,75148.66
2022-11-03T19:40:20.905Z,75152.75
2022-11-03T19:42:48.879Z,75144.59
2022-11-03T19:45:19.472Z,75148.66
2022-11-03T19:48:23.799Z,75140.50
2022-11-03T19:50:53.149Z,75148.66
2022-11-03T19:53:26.116Z,75148.66
2022-11-03T19:55:55.261Z,75136.44
2022-11-03T19:58:25.272Z,75142.53
2022-11-03T20:00:54.062Z,75140.50
2022-11-03T20:03:23.365Z,75134.41
2022-11-03T20:05:54.467Z,75138.47
2022-11-03T20:08:24.389Z,75124.19
2022-11-03T20:10:52.658Z,75126.25
2022-11-03T20:13:22.904Z,75116.06
2022-11-03T20:15:51.900Z,75111.97
2022-11-03T20:18:24.136Z,75099.75
2022-11-03T20:20:51.964Z,75099.75
2022-11-03T20:23:22.461Z,75099.75
2022-11-03T20:25:50.610Z,75093.63
2022-11-03T20:28:20.714Z,75103.81
2022-11-03T20:30:49.582Z,75103.81
2022-11-03T20:33:19.056Z,75097.72
2022-11-03T20:35:49.703Z,75099.75
2022-11-03T20:38:20.343Z,75107.91
2022-11-03T20:40:49.393Z,75099.75
2022-11-03T20:43:26.286Z,75103.81
2022-11-03T20:45:54.440Z,75103.81
2022-11-03T20:48:22.754Z,75107.91
2022-11-03T20:50:52.733Z,75105.84
2022-11-03T20:53:23.248Z,75111.97
2022-11-03T20:55:52.179Z,75107.91
2022-11-03T20:58:20.347Z,75111.97
2022-11-03T21:00:49.245Z,75124.19
2022-11-03T21:03:37.974Z,75122.16
2022-11-03T21:06:11.296Z,75126.25
2022-11-03T21:08:39.310Z,75132.34
2022-11-03T21:11:28.346Z,75130.31
2022-11-03T21:13:58.093Z,75124.19
2022-11-03T21:16:44.499Z,75128.28
2022-11-03T21:19:34.376Z,75128.28
2022-11-03T21:22:07.522Z,75116.06
2022-11-03T21:24:35.480Z,75111.97
2022-11-03T21:27:03.267Z,75099.75
2022-11-03T21:29:57.833Z,75103.81
2022-11-03T21:32:19.095Z,75095.66
2022-11-03T21:34:46.862Z,75091.59
2022-11-03T21:37:17.059Z,75083.44
2022-11-03T21:39:45.322Z,75083.44
2022-11-03T21:42:32.327Z,75081.41
2022-11-03T21:45:00.567Z,75077.31
2022-11-03T21:47:28.807Z,75075.28
2022-11-03T21:49:55.682Z,75067.13
2022-11-03T21:52:32.575Z,75073.25
2022-11-03T21:55:00.743Z,75079.38
2022-11-03T21:57:30.439Z,75103.81
2022-11-03T21:59:59.245Z,75118.09
2022-11-03T22:02:29.952Z,75132.34
2022-11-03T22:04:58.656Z,75132.34
2022-11-03T22:07:32.248Z,75124.19
2022-11-03T22:10:00.069Z,75118.09
2022-11-03T22:12:28.784Z,75124.19
2022-11-03T22:15:13.885Z,75124.19
2022-11-03T22:17:41.714Z,75128.28
2022-11-03T22:20:27.562Z,75136.44
2022-11-03T22:23:14.130Z,75144.59
2022-11-03T22:25:59.337Z,75148.66
2022-11-03T22:28:27.180Z,75148.66
2022-11-03T22:31:12.371Z,75144.59
2022-11-03T22:34:00.811Z,75156.81
2022-11-03T22:36:28.505Z,75160.88
2022-11-03T22:39:11.652Z,75156.81
2022-11-03T22:41:59.645Z,75164.97
2022-11-03T22:44:49.347Z,75169.03
2022-11-03T22:47:18.743Z,75181.28
2022-11-03T22:49:46.851Z,75179.25
2022-11-03T22:52:14.592Z,75167.00
2022-11-03T22:54:42.797Z,75162.94
2022-11-03T22:57:11.318Z,75148.66
2022-11-03T22:59:39.134Z,75148.66
2022-11-03T23:02:07.047Z,75144.59
2022-11-03T23:04:34.970Z,75116.06
2022-11-03T23:07:02.775Z,75111.97
2022-11-03T23:09:30.820Z,75107.91
2022-11-03T23:12:00.007Z,75111.97
2022-11-03T23:14:48.652Z,75116.06
2022-11-03T23:17:16.573Z,75111.97
2022-11-03T23:20:01.752Z,75116.06
2022-11-03T23:22:30.376Z,75120.13
2022-11-03T23:25:00.024Z,75120.13
2022-11-03T23:27:29.203Z,75124.19
2022-11-03T23:29:57.072Z,75124.19
2022-11-03T23:32:24.842Z,75124.19
2022-11-03T23:34:52.634Z,75136.44
2022-11-03T23:37:20.535Z,75136.44
2022-11-03T23:39:48.370Z,75144.59
2022-11-03T23:42:16.108Z,75146.63
2022-11-03T23:45:03.273Z,75156.81
2022-11-03T23:47:48.443Z,75152.75
2022-11-03T23:50:16.439Z,75160.88
2022-11-03T23:52:44.173Z,75167.00
2022-11-03T23:55:11.932Z,75169.03
2022-11-03T23:57:57.139Z,75175.16
